createdAt,value
2015-10-03T00:00:09.478Z,74124
2015-10-03T00:00:21.884Z,74129
2015-10-03T00:00:34.291Z,74128
2015-10-03T00:00:46.728Z,74132
2015-10-03T00:00:59.153Z,74132
2015-10-03T00:01:11.575Z,74125
2015-10-03T00:01:23.247Z,74125
2015-10-03T00:01:35.669Z,74131
2015-10-03T00:01:48.075Z,74129
2015-10-03T00:02:00.467Z,74129
2015-10-03T00:02:12.858Z,74133
2015-10-03T00:02:25.264Z,74134
2015-10-03T00:02:37.655Z,74127
2015-10-03T00:02:50.048Z,74125
2015-10-03T00:03:02.454Z,74125
2015-10-03T00:03:14.876Z,74127
2015-10-03T00:03:27.282Z,74123
2015-10-03T00:03:39.704Z,74122
2015-10-03T00:03:52.130Z,74125
2015-10-03T00:04:04.567Z,74123
2015-10-03T00:04:16.989Z,74127
2015-10-03T00:04:29.395Z,74130
2015-10-03T00:04:41.786Z,74131
2015-10-03T00:04:54.180Z,74131
2015-10-03T00:05:06.586Z,74140
2015-10-03T00:05:18.992Z,74134
2015-10-03T00:05:31.383Z,74133
2015-10-03T00:05:43.789Z,74131
2015-10-03T00:05:56.182Z,74134
2015-10-03T00:06:08.572Z,74136
2015-10-03T00:06:20.275Z,74132
2015-10-03T00:06:32.666Z,74129
2015-10-03T00:06:45.057Z,74127
2015-10-03T00:06:57.481Z,74134
2015-10-03T00:07:09.872Z,74131
2015-10-03T00:07:21.591Z,74128
2015-10-03T00:07:34.028Z,74122
2015-10-03T00:07:46.450Z,74121
2015-10-03T00:07:58.844Z,74119
2015-10-03T00:08:11.234Z,74119
2015-10-03T00:08:23.625Z,74120
2015-10-03T00:08:36.031Z,74120
2015-10-03T00:08:48.422Z,74114
2015-10-03T00:09:00.830Z,74118
2015-10-03T00:09:13.221Z,74119
2015-10-03T00:09:25.627Z,74113
2015-10-03T00:09:38.033Z,74118
2015-10-03T00:09:50.440Z,74115
2015-10-03T00:10:02.849Z,74131
2015-10-03T00:10:15.271Z,74135
2015-10-03T00:10:27.693Z,74134
2015-10-03T00:10:40.130Z,74137
2015-10-03T00:10:52.568Z,74137
2015-10-03T00:11:04.304Z,74135
2015-10-03T00:11:16.679Z,74133
2015-10-03T00:11:29.070Z,74127
2015-10-03T00:11:41.476Z,74125
2015-10-03T00:11:53.866Z,74123
2015-10-03T00:12:06.261Z,74128
2015-10-03T00:12:18.652Z,74120
2015-10-03T00:12:31.058Z,74122
2015-10-03T00:12:43.449Z,74124
2015-10-03T00:12:55.138Z,74117
2015-10-03T00:13:07.544Z,74116
2015-10-03T00:13:19.951Z,74109
2015-10-03T00:13:32.372Z,74106
2015-10-03T00:13:44.794Z,74104
2015-10-03T00:13:57.219Z,74114
2015-10-03T00:14:09.922Z,74115
2015-10-03T00:14:22.313Z,74114
2015-10-03T00:14:34.704Z,74118
2015-10-03T00:14:47.094Z,74113
2015-10-03T00:14:58.785Z,74119
2015-10-03T00:15:11.160Z,74122
2015-10-03T00:15:23.566Z,74120
2015-10-03T00:15:35.972Z,74119
2015-10-03T00:15:48.378Z,74116
2015-10-03T00:16:00.802Z,74115
2015-10-03T00:16:13.224Z,74117
2015-10-03T00:16:25.646Z,74123
2015-10-03T00:16:38.037Z,74122
2015-10-03T00:16:50.427Z,74119
2015-10-03T00:17:02.837Z,74127
2015-10-03T00:17:15.227Z,74121
2015-10-03T00:17:27.618Z,74117
2015-10-03T00:17:40.024Z,74116
2015-10-03T00:17:52.415Z,74114
2015-10-03T00:18:04.824Z,74110
2015-10-03T00:18:17.215Z,74104
2015-10-03T00:18:29.621Z,74105
2015-10-03T00:18:42.043Z,74104
2015-10-03T00:18:54.449Z,74107
2015-10-03T00:19:06.874Z,74107
2015-10-03T00:19:19.296Z,74110
2015-10-03T00:19:31.718Z,74112
2015-10-03T00:19:44.108Z,74121
2015-10-03T00:19:56.499Z,74125
2015-10-03T00:20:08.907Z,74127
2015-10-03T00:20:21.298Z,74128
2015-10-03T00:20:33.688Z,74124
2015-10-03T00:20:46.079Z,74126
2015-10-03T00:20:58.470Z,74124
2015-10-03T00:21:10.879Z,74116
2015-10-03T00:21:23.269Z,74117
2015-10-03T00:21:35.676Z,74115
2015-10-03T00:21:48.098Z,74110
2015-10-03T00:22:00.519Z,74114
2015-10-03T00:22:12.943Z,74119
2015-10-03T00:22:25.365Z,74120
2015-10-03T00:22:37.818Z,74124
2015-10-03T00:22:50.209Z,74119
2015-10-03T00:23:02.600Z,74126
2015-10-03T00:23:15.009Z,74129
2015-10-03T00:23:27.415Z,74129
2015-10-03T00:23:39.821Z,74124
2015-10-03T00:23:52.228Z,74117
2015-10-03T00:24:04.618Z,74116
2015-10-03T00:24:17.012Z,74111
2015-10-03T00:24:29.434Z,74106
2015-10-03T00:24:41.856Z,74099
2015-10-03T00:24:54.262Z,74102
2015-10-03T00:25:06.684Z,74096
2015-10-03T00:25:19.124Z,74086
2015-10-03T00:25:31.546Z,74085
2015-10-03T00:25:43.968Z,74084
2015-10-03T00:25:56.390Z,74090
2015-10-03T00:26:08.780Z,74101
2015-10-03T00:26:21.033Z,74095
2015-10-03T00:26:33.424Z,74093
2015-10-03T00:26:45.815Z,74088
2015-10-03T00:26:57.502Z,74086
2015-10-03T00:27:09.893Z,74087
2015-10-03T00:27:22.286Z,74085
2015-10-03T00:27:34.677Z,74081
2015-10-03T00:27:47.083Z,74079
2015-10-03T00:27:59.490Z,74080
2015-10-03T00:28:11.911Z,74086
2015-10-03T00:28:24.321Z,74082
2015-10-03T00:28:36.758Z,74075
2015-10-03T00:28:49.196Z,74077
2015-10-03T00:29:01.602Z,74090
2015-10-03T00:29:13.993Z,74094
2015-10-03T00:29:26.401Z,74101
2015-10-03T00:29:38.791Z,74106
2015-10-03T00:29:51.182Z,74096
2015-10-03T00:30:03.588Z,74090
2015-10-03T00:30:16.010Z,74118
2015-10-03T00:30:28.418Z,74120
2015-10-03T00:30:40.840Z,74119
2015-10-03T00:30:53.106Z,74107
2015-10-03T00:31:05.528Z,74104
2015-10-03T00:31:17.918Z,74091
2015-10-03T00:31:29.593Z,74090
2015-10-03T00:31:42.000Z,74087
2015-10-03T00:31:54.406Z,74091
2015-10-03T00:32:06.796Z,74093
2015-10-03T00:32:19.187Z,74098
2015-10-03T00:32:31.582Z,74108
2015-10-03T00:32:43.988Z,74109
2015-10-03T00:32:56.394Z,74117
2015-10-03T00:33:08.800Z,74117
2015-10-03T00:33:21.222Z,74117
2015-10-03T00:33:33.646Z,74110
2015-10-03T00:33:46.084Z,74113
2015-10-03T00:33:58.506Z,74115
2015-10-03T00:34:10.927Z,74109
2015-10-03T00:34:23.351Z,74109
2015-10-03T00:34:35.742Z,74105
2015-10-03T00:34:48.133Z,74104
2015-10-03T00:35:00.539Z,74102
2015-10-03T00:35:12.929Z,74103
2015-10-03T00:35:25.324Z,74110
2015-10-03T00:35:37.715Z,74118
2015-10-03T00:35:49.402Z,74125
2015-10-03T00:36:01.808Z,74126
2015-10-03T00:36:14.215Z,74119
2015-10-03T00:36:26.639Z,74127
2015-10-03T00:36:39.029Z,74124
2015-10-03T00:36:51.451Z,74119
2015-10-03T00:37:03.873Z,74114
2015-10-03T00:37:16.310Z,74117
2015-10-03T00:37:28.735Z,74113
2015-10-03T00:37:41.173Z,74111
2015-10-03T00:37:53.563Z,74116
2015-10-03T00:38:05.954Z,74116
2015-10-03T00:38:18.345Z,74120
2015-10-03T00:38:29.315Z,74121
2015-10-03T00:38:41.706Z,74121
2015-10-03T00:38:54.112Z,74120
2015-10-03T00:39:06.519Z,74115
2015-10-03T00:39:18.909Z,74107
2015-10-03T00:39:31.303Z,74105
2015-10-03T00:39:43.725Z,74105
2015-10-03T00:39:56.131Z,74108
2015-10-03T00:40:08.537Z,74106
2015-10-03T00:40:20.959Z,74112
2015-10-03T00:40:33.380Z,74120
2015-10-03T00:40:45.817Z,74127
2015-10-03T00:40:58.239Z,74130
2015-10-03T00:41:10.630Z,74127
2015-10-03T00:41:23.021Z,74127
2015-10-03T00:41:35.432Z,74126
2015-10-03T00:41:47.823Z,74128
2015-10-03T00:42:00.229Z,74121
2015-10-03T00:42:12.620Z,74109
2015-10-03T00:42:25.011Z,74107
2015-10-03T00:42:37.391Z,74106
2015-10-03T00:42:49.782Z,74100
2015-10-03T00:43:02.204Z,74091
2015-10-03T00:43:14.626Z,74090
2015-10-03T00:43:27.032Z,74087
2015-10-03T00:43:39.444Z,74091
2015-10-03T00:43:51.881Z,74092
2015-10-03T00:44:04.319Z,74096
2015-10-03T00:44:16.756Z,74089
2015-10-03T00:44:29.147Z,74087
2015-10-03T00:44:41.526Z,74101
2015-10-03T00:44:53.917Z,74107
2015-10-03T00:45:06.308Z,74112
2015-10-03T00:45:18.683Z,74106
2015-10-03T00:45:31.073Z,74102
2015-10-03T00:45:43.457Z,74105
2015-10-03T00:45:55.848Z,74113
2015-10-03T00:46:08.254Z,74104
2015-10-03T00:46:20.676Z,74105
2015-10-03T00:46:33.082Z,74097
2015-10-03T00:46:45.487Z,74092
2015-10-03T00:46:57.925Z,74091
2015-10-03T00:47:10.362Z,74091
2015-10-03T00:47:22.784Z,74092
2015-10-03T00:47:35.204Z,74100
2015-10-03T00:47:47.626Z,74102
2015-10-03T00:48:00.032Z,74103
2015-10-03T00:48:12.423Z,74112
2015-10-03T00:48:24.829Z,74112
2015-10-03T00:48:37.217Z,74113
2015-10-03T00:48:49.607Z,74129
2015-10-03T00:49:02.013Z,74131
2015-10-03T00:49:14.404Z,74135
2015-10-03T00:49:26.795Z,74138
2015-10-03T00:49:39.216Z,74125
2015-10-03T00:49:51.622Z,74129
2015-10-03T00:50:04.044Z,74136
2015-10-03T00:50:16.466Z,74136
2015-10-03T00:50:28.903Z,74139
2015-10-03T00:50:41.293Z,74142
2015-10-03T00:50:53.699Z,74148
2015-10-03T00:51:06.090Z,74140
2015-10-03T00:51:18.496Z,74134
2015-10-03T00:51:30.902Z,74145
2015-10-03T00:51:43.294Z,74151
2015-10-03T00:51:55.684Z,74152
2015-10-03T00:52:08.091Z,74151
2015-10-03T00:52:20.512Z,74139
2015-10-03T00:52:32.934Z,74131
2015-10-03T00:52:45.343Z,74125
2015-10-03T00:52:57.749Z,74127
2015-10-03T00:53:10.186Z,74131
2015-10-03T00:53:22.608Z,74127
2015-10-03T00:53:35.046Z,74122
2015-10-03T00:53:47.469Z,74118
2015-10-03T00:54:00.125Z,74111
2015-10-03T00:54:12.515Z,74104
2015-10-03T00:54:24.765Z,74103
2015-10-03T00:54:37.156Z,74101
2015-10-03T00:54:49.548Z,74096
2015-10-03T00:55:01.970Z,74083
2015-10-03T00:55:14.360Z,74083
2015-10-03T00:55:26.751Z,74078
2015-10-03T00:55:39.173Z,74079
2015-10-03T00:55:51.565Z,74111
2015-10-03T00:56:03.972Z,74105
2015-10-03T00:56:16.393Z,74104
2015-10-03T00:56:28.815Z,74099
2015-10-03T00:56:41.237Z,74103
2015-10-03T00:56:53.660Z,74105
2015-10-03T00:57:06.066Z,74097
2015-10-03T00:57:18.457Z,74098
2015-10-03T00:57:30.848Z,74094
2015-10-03T00:57:43.238Z,74092
2015-10-03T00:57:55.631Z,74088
2015-10-03T00:58:08.053Z,74081
2015-10-03T00:58:20.475Z,74085
2015-10-03T00:58:32.881Z,74079
2015-10-03T00:58:45.303Z,74065
2015-10-03T00:58:57.742Z,74067
2015-10-03T00:59:10.164Z,74070
2015-10-03T00:59:22.555Z,74097
2015-10-03T00:59:34.961Z,74101
2015-10-03T00:59:47.352Z,74106
2015-10-03T00:59:59.025Z,74109
2015-10-03T01:00:11.432Z,74108
2015-10-03T01:00:22.400Z,74107
2015-10-03T01:00:34.791Z,74109
2015-10-03T01:00:47.182Z,74112
2015-10-03T01:00:59.590Z,74115
2015-10-03T01:01:11.996Z,74116
2015-10-03T01:01:24.387Z,74112
2015-10-03T01:01:36.809Z,74109
2015-10-03T01:01:49.246Z,74105
2015-10-03T01:02:01.514Z,74100
2015-10-03T01:02:13.795Z,74085
2015-10-03T01:02:26.217Z,74083
2015-10-03T01:02:38.608Z,74081
2015-10-03T01:02:50.998Z,74073
2015-10-03T01:03:03.392Z,74064
2015-10-03T01:03:15.798Z,74063
2015-10-03T01:03:28.189Z,74059
2015-10-03T01:03:40.595Z,74063
2015-10-03T01:03:52.988Z,74050
2015-10-03T01:04:05.378Z,74033
2015-10-03T01:04:17.800Z,74037
2015-10-03T01:04:30.206Z,74061
2015-10-03T01:04:42.613Z,74074
2015-10-03T01:04:55.022Z,74090
2015-10-03T01:05:07.459Z,74099
2015-10-03T01:05:19.897Z,74095
2015-10-03T01:05:32.319Z,74097
2015-10-03T01:05:44.725Z,74097
2015-10-03T01:05:57.118Z,74090
2015-10-03T01:06:09.524Z,74084
2015-10-03T01:06:21.914Z,74082
2015-10-03T01:06:34.305Z,74082
2015-10-03T01:06:46.696Z,74083
2015-10-03T01:06:59.105Z,74089
2015-10-03T01:07:11.496Z,74088
2015-10-03T01:07:23.902Z,74090
2015-10-03T01:07:36.308Z,74088
2015-10-03T01:07:48.714Z,74088
2015-10-03T01:08:01.124Z,74068
2015-10-03T01:08:13.561Z,74053
2015-10-03T01:08:25.999Z,74053
2015-10-03T01:08:38.389Z,74059
2015-10-03T01:08:50.780Z,74073
2015-10-03T01:09:03.173Z,74082
2015-10-03T01:09:15.580Z,74096
2015-10-03T01:09:27.970Z,74105
2015-10-03T01:09:40.361Z,74107
2015-10-03T01:09:52.767Z,74102
2015-10-03T01:10:05.176Z,74102
2015-10-03T01:10:17.583Z,74099
2015-10-03T01:10:30.005Z,74099
2015-10-03T01:10:42.411Z,74094
2015-10-03T01:10:54.833Z,74090
2015-10-03T01:11:07.241Z,74087
2015-10-03T01:11:19.663Z,74088
2015-10-03T01:11:32.069Z,74082
2015-10-03T01:11:44.460Z,74083
2015-10-03T01:11:56.866Z,74092
2015-10-03T01:12:09.275Z,74089
2015-10-03T01:12:21.666Z,74093
2015-10-03T01:12:34.056Z,74088
2015-10-03T01:12:46.463Z,74083
2015-10-03T01:12:58.885Z,74082
2015-10-03T01:13:11.294Z,74088
2015-10-03T01:13:23.716Z,74087
2015-10-03T01:13:36.138Z,74081
2015-10-03T01:13:47.856Z,74083
2015-10-03T01:14:00.278Z,74077
2015-10-03T01:14:12.702Z,74082
2015-10-03T01:14:25.093Z,74080
2015-10-03T01:14:37.483Z,74081
2015-10-03T01:14:49.874Z,74081
2015-10-03T01:15:02.265Z,74079
2015-10-03T01:15:14.674Z,74070
2015-10-03T01:15:27.064Z,74069
2015-10-03T01:15:39.455Z,74068
2015-10-03T01:15:51.846Z,74070
2015-10-03T01:16:04.255Z,74078
2015-10-03T01:16:16.661Z,74085
2015-10-03T01:16:29.067Z,74096
2015-10-03T01:16:41.474Z,74101
2015-10-03T01:16:53.896Z,74099
2015-10-03T01:17:06.319Z,74094
2015-10-03T01:17:18.710Z,74094
2015-10-03T01:17:31.101Z,74092
2015-10-03T01:17:43.507Z,74093
2015-10-03T01:17:55.898Z,74093
2015-10-03T01:18:08.307Z,74093
2015-10-03T01:18:19.838Z,74097
2015-10-03T01:18:32.229Z,74104
2015-10-03T01:18:44.619Z,74110
2015-10-03T01:18:57.026Z,74115
2015-10-03T01:19:09.435Z,74116
2015-10-03T01:19:21.841Z,74116
2015-10-03T01:19:34.263Z,74113
2015-10-03T01:19:46.685Z,74113
2015-10-03T01:19:58.950Z,74112
2015-10-03T01:20:11.375Z,74107
2015-10-03T01:20:23.797Z,74100
2015-10-03T01:20:36.235Z,74098
2015-10-03T01:20:48.625Z,74096
2015-10-03T01:21:01.016Z,74090
2015-10-03T01:21:13.425Z,74089
2015-10-03T01:21:25.831Z,74088
2015-10-03T01:21:38.222Z,74088
2015-10-03T01:21:50.618Z,74087
2015-10-03T01:22:03.008Z,74083
2015-10-03T01:22:15.401Z,74089
2015-10-03T01:22:27.823Z,74082
2015-10-03T01:22:40.229Z,74079
2015-10-03T01:22:52.651Z,74071
2015-10-03T01:23:05.057Z,74070
2015-10-03T01:23:17.482Z,74070
2015-10-03T01:23:29.919Z,74089
2015-10-03T01:23:42.341Z,74096
2015-10-03T01:23:54.763Z,74096
2015-10-03T01:24:07.154Z,74096
2015-10-03T01:24:19.547Z,74097
2015-10-03T01:24:31.954Z,74100
2015-10-03T01:24:44.344Z,74098
2015-10-03T01:24:56.579Z,74101
2015-10-03T01:25:08.985Z,74095
2015-10-03T01:25:21.378Z,74093
2015-10-03T01:25:33.784Z,74086
2015-10-03T01:25:46.190Z,74081
2015-10-03T01:25:58.596Z,74082
2015-10-03T01:26:11.018Z,74083
2015-10-03T01:26:23.443Z,74080
2015-10-03T01:26:35.865Z,74079
2015-10-03T01:26:48.302Z,74075
2015-10-03T01:27:00.693Z,74079
2015-10-03T01:27:13.084Z,74081
2015-10-03T01:27:25.493Z,74077
2015-10-03T01:27:37.884Z,74078
2015-10-03T01:27:50.290Z,74082
2015-10-03T01:28:02.680Z,74086
2015-10-03T01:28:15.102Z,74082
2015-10-03T01:28:26.792Z,74080
2015-10-03T01:28:39.198Z,74078
2015-10-03T01:28:51.620Z,74082
2015-10-03T01:29:04.026Z,74088
2015-10-03T01:29:16.432Z,74099
2015-10-03T01:29:28.873Z,74091
2015-10-03T01:29:41.295Z,74093
2015-10-03T01:29:53.717Z,74087
2015-10-03T01:30:06.107Z,74084
2015-10-03T01:30:18.501Z,74081
2015-10-03T01:30:30.892Z,74081
2015-10-03T01:30:43.298Z,74081
2015-10-03T01:30:55.688Z,74080
2015-10-03T01:31:08.110Z,74083
2015-10-03T01:31:20.504Z,74074
2015-10-03T01:31:32.895Z,74072
2015-10-03T01:31:45.316Z,74062
2015-10-03T01:31:57.723Z,74061
2015-10-03T01:32:10.129Z,74062
2015-10-03T01:32:22.568Z,74059
2015-10-03T01:32:34.990Z,74064
2015-10-03T01:32:47.428Z,74067
2015-10-03T01:32:58.990Z,74072
2015-10-03T01:33:11.397Z,74070
2015-10-03T01:33:23.790Z,74067
2015-10-03T01:33:36.181Z,74069
2015-10-03T01:33:48.571Z,74071
2015-10-03T01:34:00.962Z,74071
2015-10-03T01:34:13.368Z,74073
2015-10-03T01:34:25.763Z,74075
2015-10-03T01:34:38.154Z,74076
2015-10-03T01:34:50.560Z,74075
2015-10-03T01:35:02.966Z,74070
2015-10-03T01:35:15.372Z,74081
2015-10-03T01:35:27.796Z,74079
2015-10-03T01:35:40.218Z,74082
2015-10-03T01:35:52.609Z,74076
2015-10-03T01:36:05.031Z,74070
2015-10-03T01:36:17.421Z,74076
2015-10-03T01:36:29.814Z,74079
2015-10-03T01:36:42.204Z,74080
2015-10-03T01:36:54.626Z,74077
2015-10-03T01:37:06.876Z,74081
2015-10-03T01:37:19.267Z,74083
2015-10-03T01:37:31.662Z,74088
2015-10-03T01:37:44.068Z,74083
2015-10-03T01:37:55.771Z,74080
2015-10-03T01:38:08.177Z,74081
2015-10-03T01:38:20.615Z,74077
2015-10-03T01:38:33.039Z,74073
2015-10-03T01:38:45.460Z,74068
2015-10-03T01:38:57.867Z,74069
2015-10-03T01:39:10.257Z,74072
2015-10-03T01:39:22.664Z,74071
2015-10-03T01:39:35.057Z,74070
2015-10-03T01:39:47.448Z,74069
2015-10-03T01:39:59.854Z,74067
2015-10-03T01:40:12.276Z,74066
2015-10-03T01:40:24.682Z,74066
2015-10-03T01:40:37.090Z,74059
2015-10-03T01:40:49.512Z,74063
2015-10-03T01:41:01.950Z,74063
2015-10-03T01:41:14.372Z,74066
2015-10-03T01:41:26.809Z,74065
2015-10-03T01:41:38.501Z,74061
2015-10-03T01:41:50.891Z,74065
2015-10-03T01:42:03.282Z,74064
2015-10-03T01:42:15.673Z,74062
2015-10-03T01:42:28.063Z,74063
2015-10-03T01:42:40.456Z,74063
2015-10-03T01:42:52.862Z,74068
2015-10-03T01:43:05.253Z,74074
2015-10-03T01:43:17.659Z,74074
2015-10-03T01:43:30.065Z,74075
2015-10-03T01:43:42.474Z,74076
2015-10-03T01:43:54.912Z,74071
2015-10-03T01:44:07.334Z,74074
2015-10-03T01:44:19.756Z,74079
2015-10-03T01:44:32.178Z,74076
2015-10-03T01:44:44.617Z,74079
2015-10-03T01:44:57.008Z,74075
2015-10-03T01:45:09.414Z,74077
2015-10-03T01:45:21.789Z,74076
2015-10-03T01:45:34.195Z,74076
2015-10-03T01:45:46.589Z,74072
2015-10-03T01:45:58.979Z,74073
2015-10-03T01:46:11.386Z,74069
2015-10-03T01:46:23.776Z,74069
2015-10-03T01:46:36.183Z,74069
2015-10-03T01:46:48.576Z,74066
2015-10-03T01:47:00.982Z,74059
2015-10-03T01:47:13.436Z,74058
2015-10-03T01:47:25.857Z,74057
2015-10-03T01:47:38.295Z,74059
2015-10-03T01:47:50.720Z,74052
2015-10-03T01:48:03.126Z,74051
2015-10-03T01:48:15.517Z,74046
2015-10-03T01:48:27.907Z,74049
2015-10-03T01:48:40.298Z,74055
2015-10-03T01:48:52.691Z,74058
2015-10-03T01:49:05.097Z,74063
2015-10-03T01:49:17.503Z,74067
2015-10-03T01:49:29.894Z,74066
2015-10-03T01:49:42.300Z,74070
2015-10-03T01:49:54.710Z,74075
2015-10-03T01:50:07.101Z,74071
2015-10-03T01:50:19.538Z,74075
2015-10-03T01:50:31.960Z,74076
2015-10-03T01:50:44.382Z,74071
2015-10-03T01:50:56.791Z,74069
2015-10-03T01:51:09.198Z,74067
2015-10-03T01:51:21.604Z,74067
2015-10-03T01:51:33.979Z,74063
2015-10-03T01:51:46.369Z,74062
2015-10-03T01:51:58.059Z,74067
2015-10-03T01:52:10.450Z,74064
2015-10-03T01:52:22.856Z,74071
2015-10-03T01:52:35.246Z,74069
2015-10-03T01:52:47.640Z,74066
2015-10-03T01:53:00.046Z,74065
2015-10-03T01:53:12.468Z,74066
2015-10-03T01:53:24.187Z,74070
2015-10-03T01:53:36.609Z,74069
2015-10-03T01:53:49.033Z,74068
2015-10-03T01:54:01.455Z,74066
2015-10-03T01:54:13.845Z,74069
2015-10-03T01:54:26.251Z,74069
2015-10-03T01:54:38.626Z,74066
2015-10-03T01:54:51.035Z,74069
2015-10-03T01:55:03.425Z,74065
2015-10-03T01:55:15.128Z,74064
2015-10-03T01:55:27.535Z,74065
2015-10-03T01:55:39.769Z,74071
2015-10-03T01:55:52.178Z,74068
2015-10-03T01:56:04.569Z,74070
2015-10-03T01:56:16.975Z,74071
2015-10-03T01:56:29.397Z,74069
2015-10-03T01:56:41.835Z,74073
2015-10-03T01:56:54.259Z,74070
2015-10-03T01:57:06.681Z,74067
2015-10-03T01:57:19.088Z,74068
2015-10-03T01:57:31.478Z,74070
2015-10-03T01:57:43.869Z,74075
2015-10-03T01:57:56.262Z,74076
2015-10-03T01:58:08.669Z,74080
2015-10-03T01:58:21.059Z,74077
2015-10-03T01:58:33.466Z,74078
2015-10-03T01:58:45.872Z,74078
2015-10-03T01:58:58.265Z,74075
2015-10-03T01:59:10.672Z,74073
2015-10-03T01:59:23.062Z,74073
2015-10-03T01:59:35.484Z,74075
2015-10-03T01:59:47.890Z,74073
2015-10-03T02:00:00.315Z,74079
2015-10-03T02:00:12.597Z,74082
2015-10-03T02:00:25.018Z,74083
2015-10-03T02:00:37.456Z,74081
2015-10-03T02:00:49.847Z,74081
2015-10-03T02:01:02.239Z,74084
2015-10-03T02:01:14.661Z,74084
2015-10-03T02:01:27.067Z,74081
2015-10-03T02:01:39.442Z,74084
2015-10-03T02:01:51.849Z,74080
2015-10-03T02:02:04.242Z,74081
2015-10-03T02:02:16.633Z,74083
2015-10-03T02:02:29.055Z,74084
2015-10-03T02:02:41.461Z,74081
2015-10-03T02:02:53.867Z,74082
2015-10-03T02:03:06.291Z,74084
2015-10-03T02:03:18.729Z,74081
2015-10-03T02:03:31.166Z,74082
2015-10-03T02:03:43.588Z,74083
2015-10-03T02:03:56.025Z,74081
2015-10-03T02:04:08.419Z,74079
2015-10-03T02:04:20.810Z,74080
2015-10-03T02:04:33.200Z,74080
2015-10-03T02:04:45.591Z,74078
2015-10-03T02:04:57.997Z,74077
2015-10-03T02:05:10.422Z,74073
2015-10-03T02:05:22.860Z,74072
2015-10-03T02:05:35.250Z,74071
2015-10-03T02:05:47.641Z,74071
2015-10-03T02:06:00.050Z,74077
2015-10-03T02:06:12.456Z,74073
2015-10-03T02:06:24.894Z,74073
2015-10-03T02:06:37.316Z,74071
2015-10-03T02:06:49.738Z,74068
2015-10-03T02:07:02.130Z,74068
2015-10-03T02:07:14.521Z,74067
2015-10-03T02:07:26.911Z,74066
2015-10-03T02:07:39.318Z,74067
2015-10-03T02:07:51.708Z,74070
2015-10-03T02:08:04.119Z,74075
2015-10-03T02:08:16.525Z,74069
2015-10-03T02:08:28.931Z,74070
2015-10-03T02:08:41.353Z,74069
2015-10-03T02:08:53.775Z,74072
2015-10-03T02:09:06.200Z,74072
2015-10-03T02:09:18.637Z,74073
2015-10-03T02:09:31.028Z,74072
2015-10-03T02:09:43.418Z,74071
2015-10-03T02:09:55.825Z,74076
2015-10-03T02:10:08.218Z,74072
2015-10-03T02:10:20.609Z,74072
2015-10-03T02:10:33.015Z,74073
2015-10-03T02:10:45.406Z,74069
2015-10-03T02:10:57.796Z,74069
2015-10-03T02:11:10.219Z,74075
2015-10-03T02:11:22.626Z,74070
2015-10-03T02:11:35.047Z,74069
2015-10-03T02:11:47.438Z,74076
2015-10-03T02:11:59.860Z,74072
2015-10-03T02:12:11.583Z,74069
2015-10-03T02:12:24.005Z,74068
2015-10-03T02:12:36.442Z,74067
2015-10-03T02:12:48.864Z,74066
2015-10-03T02:13:01.255Z,74072
2015-10-03T02:13:13.648Z,74068
2015-10-03T02:13:26.054Z,74068
2015-10-03T02:13:38.445Z,74068
2015-10-03T02:13:50.836Z,74070
2015-10-03T02:14:03.226Z,74068
2015-10-03T02:14:15.635Z,74069
2015-10-03T02:14:28.025Z,74071
2015-10-03T02:14:40.431Z,74069
2015-10-03T02:14:52.853Z,74075
2015-10-03T02:15:05.119Z,74070
2015-10-03T02:15:17.543Z,74073
2015-10-03T02:15:29.965Z,74072
2015-10-03T02:15:42.371Z,74068
2015-10-03T02:15:54.777Z,74065
2015-10-03T02:16:07.168Z,74064
2015-10-03T02:16:19.578Z,74070
2015-10-03T02:16:31.969Z,74072
2015-10-03T02:16:44.359Z,74072
2015-10-03T02:16:56.750Z,74073
2015-10-03T02:17:09.141Z,74069
2015-10-03T02:17:21.549Z,74069
2015-10-03T02:17:33.955Z,74065
2015-10-03T02:17:46.361Z,74064
2015-10-03T02:17:58.768Z,74068
2015-10-03T02:18:11.236Z,74066
2015-10-03T02:18:23.661Z,74067
2015-10-03T02:18:35.927Z,74071
2015-10-03T02:18:48.192Z,74075
2015-10-03T02:19:00.614Z,74073
2015-10-03T02:19:13.005Z,74073
2015-10-03T02:19:25.399Z,74068
2015-10-03T02:19:37.805Z,74063
2015-10-03T02:19:50.195Z,74058
2015-10-03T02:20:02.586Z,74060
2015-10-03T02:20:14.992Z,74063
2015-10-03T02:20:27.385Z,74063
2015-10-03T02:20:39.776Z,74061
2015-10-03T02:20:52.166Z,74063
2015-10-03T02:21:04.572Z,74066
2015-10-03T02:21:16.994Z,74065
2015-10-03T02:21:29.419Z,74065
2015-10-03T02:21:41.841Z,74066
2015-10-03T02:21:54.263Z,74070
2015-10-03T02:22:06.700Z,74071
2015-10-03T02:22:19.138Z,74075
2015-10-03T02:22:31.391Z,74072
2015-10-03T02:22:43.782Z,74073
2015-10-03T02:22:56.188Z,74073
2015-10-03T02:23:08.578Z,74073
2015-10-03T02:23:20.969Z,74070
2015-10-03T02:23:33.363Z,74068
2015-10-03T02:23:45.769Z,74070
2015-10-03T02:23:58.160Z,74062
2015-10-03T02:24:10.581Z,74060
2015-10-03T02:24:22.988Z,74059
2015-10-03T02:24:35.397Z,74057
2015-10-03T02:24:47.803Z,74055
2015-10-03T02:25:00.225Z,74064
2015-10-03T02:25:12.647Z,74063
2015-10-03T02:25:25.071Z,74066
2015-10-03T02:25:37.508Z,74056
2015-10-03T02:25:49.899Z,74064
2015-10-03T02:26:02.305Z,74072
2015-10-03T02:26:14.696Z,74070
2015-10-03T02:26:27.089Z,74073
2015-10-03T02:26:39.480Z,74072
2015-10-03T02:26:51.871Z,74073
2015-10-03T02:27:04.261Z,74070
2015-10-03T02:27:15.949Z,74071
2015-10-03T02:27:28.358Z,74073
2015-10-03T02:27:40.764Z,74075
2015-10-03T02:27:53.186Z,74077
2015-10-03T02:28:05.608Z,74071
2015-10-03T02:28:18.030Z,74066
2015-10-03T02:28:30.454Z,74056
2015-10-03T02:28:42.876Z,74059
2015-10-03T02:28:55.266Z,74065
2015-10-03T02:29:07.673Z,74063
2015-10-03T02:29:20.063Z,74054
2015-10-03T02:29:32.457Z,74054
2015-10-03T02:29:44.847Z,74058
2015-10-03T02:29:57.254Z,74054
2015-10-03T02:30:09.660Z,74058
2015-10-03T02:30:22.066Z,74060
2015-10-03T02:30:34.335Z,74059
2015-10-03T02:30:46.741Z,74070
2015-10-03T02:30:59.163Z,74070
2015-10-03T02:31:11.585Z,74070
2015-10-03T02:31:23.991Z,74063
2015-10-03T02:31:36.399Z,74062
2015-10-03T02:31:48.087Z,74061
2015-10-03T02:32:00.493Z,74062
2015-10-03T02:32:12.884Z,74063
2015-10-03T02:32:25.274Z,74064
2015-10-03T02:32:37.685Z,74068
2015-10-03T02:32:50.075Z,74067
2015-10-03T02:33:02.466Z,74068
2015-10-03T02:33:14.856Z,74061
2015-10-03T02:33:27.263Z,74060
2015-10-03T02:33:39.671Z,74053
2015-10-03T02:33:52.077Z,74058
2015-10-03T02:34:04.499Z,74050
2015-10-03T02:34:16.921Z,74061
2015-10-03T02:34:29.358Z,74064
2015-10-03T02:34:41.782Z,74062
2015-10-03T02:34:54.204Z,74056
2015-10-03T02:35:06.595Z,74060
2015-10-03T02:35:18.985Z,74063
2015-10-03T02:35:31.392Z,74069
2015-10-03T02:35:43.786Z,74070
2015-10-03T02:35:56.193Z,74077
2015-10-03T02:36:08.599Z,74075
2015-10-03T02:36:21.005Z,74072
2015-10-03T02:36:33.411Z,74071
2015-10-03T02:36:45.836Z,74073
2015-10-03T02:36:58.258Z,74072
2015-10-03T02:37:10.664Z,74074
2015-10-03T02:37:23.086Z,74071
2015-10-03T02:37:35.492Z,74072
2015-10-03T02:37:47.869Z,74073
2015-10-03T02:38:00.260Z,74074
2015-10-03T02:38:12.651Z,74077
2015-10-03T02:38:25.057Z,74076
2015-10-03T02:38:37.448Z,74075
2015-10-03T02:38:49.857Z,74075
2015-10-03T02:39:02.247Z,74074
2015-10-03T02:39:14.654Z,74072
2015-10-03T02:39:27.044Z,74075